sensor_id;sensor_type;location;lat;lon;timestamp;P1;durP1;ratioP1;P2;durP2;ratioP2
14799;SDS011;7491;57.750;11.970;2023-04-06T00:02:16;2.78;;;2.00;;
14799;SDS011;7491;57.750;11.970;2023-04-06T00:04:42;2.28;;;1.77;;
14799;SDS011;7491;57.750;11.970;2023-04-06T00:07:09;2.17;;;1.92;;
14799;SDS011;7491;57.750;11.970;2023-04-06T00:09:37;1.90;;;1.75;;
14799;SDS011;7491;57.750;11.970;2023-04-06T00:12:03;3.90;;;2.20;;
14799;SDS011;7491;57.750;11.970;2023-04-06T00:14:30;2.25;;;1.75;;
14799;SDS011;7491;57.750;11.970;2023-04-06T00:16:57;2.55;;;2.28;;
14799;SDS011;7491;57.750;11.970;2023-04-06T00:19:23;2.92;;;2.38;;
14799;SDS011;7491;57.750;11.970;2023-04-06T00:21:50;2.05;;;1.85;;
14799;SDS011;7491;57.750;11.970;2023-04-06T00:24:16;3.08;;;2.13;;
14799;SDS011;7491;57.750;11.970;2023-04-06T00:26:44;2.90;;;1.95;;
14799;SDS011;7491;57.750;11.970;2023-04-06T00:29:11;3.35;;;2.00;;
14799;SDS011;7491;57.750;11.970;2023-04-06T00:31:38;2.85;;;2.05;;
14799;SDS011;7491;57.750;11.970;2023-04-06T00:34:05;2.28;;;2.00;;
14799;SDS011;7491;57.750;11.970;2023-04-06T00:36:32;1.98;;;1.80;;
14799;SDS011;7491;57.750;11.970;2023-04-06T00:38:58;3.53;;;2.20;;
14799;SDS011;7491;57.750;11.970;2023-04-06T00:41:25;2.80;;;1.85;;
14799;SDS011;7491;57.750;11.970;2023-04-06T00:43:53;1.98;;;1.70;;
14799;SDS011;7491;57.750;11.970;2023-04-06T00:46:20;2.30;;;2.03;;
14799;SDS011;7491;57.750;11.970;2023-04-06T00:48:47;2.97;;;2.40;;
14799;SDS011;7491;57.750;11.970;2023-04-06T00:51:14;3.53;;;2.00;;
14799;SDS011;7491;57.750;11.970;2023-04-06T00:53:40;2.10;;;1.90;;
14799;SDS011;7491;57.750;11.970;2023-04-06T00:56:07;2.90;;;2.10;;
14799;SDS011;7491;57.750;11.970;2023-04-06T00:58:34;4.32;;;1.90;;
14799;SDS011;7491;57.750;11.970;2023-04-06T01:01:04;2.70;;;1.92;;
14799;SDS011;7491;57.750;11.970;2023-04-06T01:03:31;2.65;;;1.73;;
14799;SDS011;7491;57.750;11.970;2023-04-06T01:05:57;2.03;;;1.70;;
14799;SDS011;7491;57.750;11.970;2023-04-06T01:08:24;2.28;;;1.67;;
14799;SDS011;7491;57.750;11.970;2023-04-06T01:10:51;2.00;;;1.80;;
14799;SDS011;7491;57.750;11.970;2023-04-06T01:13:17;2.20;;;2.00;;
14799;SDS011;7491;57.750;11.970;2023-04-06T01:15:44;1.90;;;1.70;;
14799;SDS011;7491;57.750;11.970;2023-04-06T01:18:13;2.58;;;2.22;;
14799;SDS011;7491;57.750;11.970;2023-04-06T01:20:40;4.28;;;2.30;;
14799;SDS011;7491;57.750;11.970;2023-04-06T01:23:08;2.63;;;2.17;;
14799;SDS011;7491;57.750;11.970;2023-04-06T01:25:34;1.98;;;1.77;;
14799;SDS011;7491;57.750;11.970;2023-04-06T01:28:01;2.72;;;2.25;;
14799;SDS011;7491;57.750;11.970;2023-04-06T01:30:28;7.63;;;2.50;;
14799;SDS011;7491;57.750;11.970;2023-04-06T01:32:55;4.43;;;2.20;;
14799;SDS011;7491;57.750;11.970;2023-04-06T01:35:22;2.00;;;1.80;;
14799;SDS011;7491;57.750;11.970;2023-04-06T01:37:48;2.67;;;1.73;;
14799;SDS011;7491;57.750;11.970;2023-04-06T01:40:16;4.13;;;1.83;;
14799;SDS011;7491;57.750;11.970;2023-04-06T01:42:43;2.03;;;1.83;;
14799;SDS011;7491;57.750;11.970;2023-04-06T01:45:10;2.17;;;1.98;;
14799;SDS011;7491;57.750;11.970;2023-04-06T01:47:36;2.55;;;1.90;;
14799;SDS011;7491;57.750;11.970;2023-04-06T01:50:03;2.00;;;1.90;;
14799;SDS011;7491;57.750;11.970;2023-04-06T01:52:32;3.08;;;2.22;;
14799;SDS011;7491;57.750;11.970;2023-04-06T01:54:59;2.17;;;1.65;;
14799;SDS011;7491;57.750;11.970;2023-04-06T01:57:27;3.10;;;1.90;;
14799;SDS011;7491;57.750;11.970;2023-04-06T01:59:53;2.65;;;1.85;;
14799;SDS011;7491;57.750;11.970;2023-04-06T02:02:20;2.38;;;2.10;;
14799;SDS011;7491;57.750;11.970;2023-04-06T02:04:46;2.40;;;1.98;;
14799;SDS011;7491;57.750;11.970;2023-04-06T02:07:13;2.25;;;1.70;;
14799;SDS011;7491;57.750;11.970;2023-04-06T02:09:39;1.50;;;1.40;;
14799;SDS011;7491;57.750;11.970;2023-04-06T02:12:06;2.03;;;1.85;;
14799;SDS011;7491;57.750;11.970;2023-04-06T02:14:34;2.40;;;2.10;;
14799;SDS011;7491;57.750;11.970;2023-04-06T02:17:01;1.83;;;1.67;;
14799;SDS011;7491;57.750;11.970;2023-04-06T02:19:27;3.17;;;2.70;;
14799;SDS011;7491;57.750;11.970;2023-04-06T02:21:54;2.38;;;2.17;;
14799;SDS011;7491;57.750;11.970;2023-04-06T02:24:20;3.35;;;2.15;;
14799;SDS011;7491;57.750;11.970;2023-04-06T02:26:47;2.47;;;2.15;;
14799;SDS011;7491;57.750;11.970;2023-04-06T02:29:13;3.50;;;2.05;;
14799;SDS011;7491;57.750;11.970;2023-04-06T02:31:41;3.83;;;2.33;;
14799;SDS011;7491;57.750;11.970;2023-04-06T02:34:08;2.30;;;2.10;;
14799;SDS011;7491;57.750;11.970;2023-04-06T02:36:37;2.33;;;1.95;;
14799;SDS011;7491;57.750;11.970;2023-04-06T02:39:03;5.00;;;3.03;;
14799;SDS011;7491;57.750;11.970;2023-04-06T02:41:30;1.90;;;1.70;;
14799;SDS011;7491;57.750;11.970;2023-04-06T02:43:56;3.35;;;1.48;;
14799;SDS011;7491;57.750;11.970;2023-04-06T02:46:23;1.95;;;1.75;;
14799;SDS011;7491;57.750;11.970;2023-04-06T02:48:51;3.58;;;1.95;;
14799;SDS011;7491;57.750;11.970;2023-04-06T02:51:17;1.98;;;1.83;;
14799;SDS011;7491;57.750;11.970;2023-04-06T02:53:44;2.50;;;2.05;;
14799;SDS011;7491;57.750;11.970;2023-04-06T02:56:11;3.13;;;2.10;;
14799;SDS011;7491;57.750;11.970;2023-04-06T02:58:37;4.35;;;2.35;;
14799;SDS011;7491;57.750;11.970;2023-04-06T03:01:04;1.98;;;1.85;;
14799;SDS011;7491;57.750;11.970;2023-04-06T03:03:31;2.33;;;2.10;;
14799;SDS011;7491;57.750;11.970;2023-04-06T03:05:59;3.15;;;1.95;;
14799;SDS011;7491;57.750;11.970;2023-04-06T03:08:25;2.10;;;1.90;;
14799;SDS011;7491;57.750;11.970;2023-04-06T03:10:52;2.75;;;2.13;;
14799;SDS011;7491;57.750;11.970;2023-04-06T03:13:18;3.75;;;2.10;;
14799;SDS011;7491;57.750;11.970;2023-04-06T03:15:45;3.05;;;2.60;;
14799;SDS011;7491;57.750;11.970;2023-04-06T03:18:12;3.53;;;1.88;;
14799;SDS011;7491;57.750;11.970;2023-04-06T03:20:38;1.95;;;1.85;;
14799;SDS011;7491;57.750;11.970;2023-04-06T03:23:06;2.33;;;2.05;;
14799;SDS011;7491;57.750;11.970;2023-04-06T03:25:33;3.90;;;2.60;;
14799;SDS011;7491;57.750;11.970;2023-04-06T03:28:00;3.80;;;2.20;;
14799;SDS011;7491;57.750;11.970;2023-04-06T03:30:26;2.08;;;1.98;;
14799;SDS011;7491;57.750;11.970;2023-04-06T03:32:53;4.00;;;2.28;;
14799;SDS011;7491;57.750;11.970;2023-04-06T03:35:19;2.53;;;2.28;;
14799;SDS011;7491;57.750;11.970;2023-04-06T03:37:46;2.90;;;2.50;;
14799;SDS011;7491;57.750;11.970;2023-04-06T03:40:14;2.65;;;2.33;;
14799;SDS011;7491;57.750;11.970;2023-04-06T03:42:41;2.40;;;2.15;;
14799;SDS011;7491;57.750;11.970;2023-04-06T03:45:07;3.00;;;2.40;;
14799;SDS011;7491;57.750;11.970;2023-04-06T03:47:35;2.60;;;2.40;;
14799;SDS011;7491;57.750;11.970;2023-04-06T03:50:01;3.22;;;2.42;;
14799;SDS011;7491;57.750;11.970;2023-04-06T03:52:28;3.28;;;2.55;;
14799;SDS011;7491;57.750;11.970;2023-04-06T03:54:55;4.07;;;3.15;;
14799;SDS011;7491;57.750;11.970;2023-04-06T03:57:23;3.10;;;2.80;;
14799;SDS011;7491;57.750;11.970;2023-04-06T03:59:50;2.97;;;2.70;;
14799;SDS011;7491;57.750;11.970;2023-04-06T04:02:16;4.57;;;3.28;;
14799;SDS011;7491;57.750;11.970;2023-04-06T04:04:43;4.22;;;2.70;;
14799;SDS011;7491;57.750;11.970;2023-04-06T04:07:09;3.38;;;3.00;;
14799;SDS011;7491;57.750;11.970;2023-04-06T04:09:36;3.85;;;3.00;;
14799;SDS011;7491;57.750;11.970;2023-04-06T04:12:03;2.90;;;2.60;;
14799;SDS011;7491;57.750;11.970;2023-04-06T04:14:31;6.05;;;2.65;;
14799;SDS011;7491;57.750;11.970;2023-04-06T04:16:58;3.90;;;3.00;;
14799;SDS011;7491;57.750;11.970;2023-04-06T04:19:24;4.43;;;2.75;;
14799;SDS011;7491;57.750;11.970;2023-04-06T04:21:51;3.78;;;2.85;;
14799;SDS011;7491;57.750;11.970;2023-04-06T04:24:17;3.47;;;2.60;;
14799;SDS011;7491;57.750;11.970;2023-04-06T04:26:44;3.08;;;2.65;;
14799;SDS011;7491;57.750;11.970;2023-04-06T04:29:11;2.42;;;2.17;;
14799;SDS011;7491;57.750;11.970;2023-04-06T04:31:39;4.15;;;2.67;;
14799;SDS011;7491;57.750;11.970;2023-04-06T04:34:05;4.72;;;2.70;;
14799;SDS011;7491;57.750;11.970;2023-04-06T04:36:32;5.50;;;3.80;;
14799;SDS011;7491;57.750;11.970;2023-04-06T04:38:59;7.63;;;4.53;;
14799;SDS011;7491;57.750;11.970;2023-04-06T04:41:26;5.03;;;4.07;;
14799;SDS011;7491;57.750;11.970;2023-04-06T04:43:53;4.47;;;3.90;;
14799;SDS011;7491;57.750;11.970;2023-04-06T04:46:20;4.72;;;3.90;;
14799;SDS011;7491;57.750;11.970;2023-04-06T04:48:48;2.97;;;2.67;;
14799;SDS011;7491;57.750;11.970;2023-04-06T04:51:14;3.03;;;2.78;;
14799;SDS011;7491;57.750;11.970;2023-04-06T04:53:41;3.28;;;2.75;;
14799;SDS011;7491;57.750;11.970;2023-04-06T04:56:08;4.05;;;2.83;;
14799;SDS011;7491;57.750;11.970;2023-04-06T04:58:34;2.70;;;2.47;;
14799;SDS011;7491;57.750;11.970;2023-04-06T05:01:01;4.40;;;2.65;;
14799;SDS011;7491;57.750;11.970;2023-04-06T05:03:27;2.75;;;2.55;;
14799;SDS011;7491;57.750;11.970;2023-04-06T05:05:56;3.35;;;3.05;;
14799;SDS011;7491;57.750;11.970;2023-04-06T05:08:22;3.28;;;2.78;;
14799;SDS011;7491;57.750;11.970;2023-04-06T05:10:49;2.92;;;2.40;;
14799;SDS011;7491;57.750;11.970;2023-04-06T05:13:16;2.67;;;2.45;;
14799;SDS011;7491;57.750;11.970;2023-04-06T05:15:42;5.80;;;4.18;;
14799;SDS011;7491;57.750;11.970;2023-04-06T05:18:09;4.75;;;3.25;;
14799;SDS011;7491;57.750;11.970;2023-04-06T05:20:37;3.70;;;2.40;;
14799;SDS011;7491;57.750;11.970;2023-04-06T05:23:06;2.88;;;2.60;;
14799;SDS011;7491;57.750;11.970;2023-04-06T05:25:33;3.80;;;2.92;;
14799;SDS011;7491;57.750;11.970;2023-04-06T05:28:00;6.47;;;4.72;;
14799;SDS011;7491;57.750;11.970;2023-04-06T05:30:27;7.10;;;4.07;;
14799;SDS011;7491;57.750;11.970;2023-04-06T05:32:53;7.28;;;5.95;;
14799;SDS011;7491;57.750;11.970;2023-04-06T05:35:21;13.20;;;9.43;;
14799;SDS011;7491;57.750;11.970;2023-04-06T05:37:47;5.70;;;3.83;;
14799;SDS011;7491;57.750;11.970;2023-04-06T05:40:15;4.88;;;3.05;;
14799;SDS011;7491;57.750;11.970;2023-04-06T05:42:42;2.97;;;2.15;;
14799;SDS011;7491;57.750;11.970;2023-04-06T05:45:09;14.45;;;7.47;;
14799;SDS011;7491;57.750;11.970;2023-04-06T05:47:41;19.90;;;10.20;;
14799;SDS011;7491;57.750;11.970;2023-04-06T05:50:08;3.92;;;2.22;;
14799;SDS011;7491;57.750;11.970;2023-04-06T05:52:35;3.92;;;2.63;;
14799;SDS011;7491;57.750;11.970;2023-04-06T05:55:02;3.75;;;3.17;;
14799;SDS011;7491;57.750;11.970;2023-04-06T05:57:31;9.20;;;5.00;;
14799;SDS011;7491;57.750;11.970;2023-04-06T05:59:58;2.88;;;2.58;;
14799;SDS011;7491;57.750;11.970;2023-04-06T06:02:24;3.45;;;2.03;;
14799;SDS011;7491;57.750;11.970;2023-04-06T06:04:51;3.00;;;2.63;;
14799;SDS011;7491;57.750;11.970;2023-04-06T06:07:18;1.98;;;1.85;;
14799;SDS011;7491;57.750;11.970;2023-04-06T06:09:44;3.05;;;2.00;;
14799;SDS011;7491;57.750;11.970;2023-04-06T06:12:11;1.73;;;1.52;;
14799;SDS011;7491;57.750;11.970;2023-04-06T06:14:39;3.00;;;2.65;;
14799;SDS011;7491;57.750;11.970;2023-04-06T06:17:06;38.33;;;15.07;;
14799;SDS011;7491;57.750;11.970;2023-04-06T06:19:32;46.55;;;17.42;;
14799;SDS011;7491;57.750;11.970;2023-04-06T06:21:59;14.60;;;5.72;;
14799;SDS011;7491;57.750;11.970;2023-04-06T06:24:27;88.90;;;31.25;;
14799;SDS011;7491;57.750;11.970;2023-04-06T06:26:54;5.18;;;3.30;;
14799;SDS011;7491;57.750;11.970;2023-04-06T06:29:21;20.60;;;8.90;;
14799;SDS011;7491;57.750;11.970;2023-04-06T06:31:50;59.30;;;24.33;;
14799;SDS011;7491;57.750;11.970;2023-04-06T06:34:16;38.78;;;14.95;;
14799;SDS011;7491;57.750;11.970;2023-04-06T06:36:43;3.45;;;2.78;;
14799;SDS011;7491;57.750;11.970;2023-04-06T06:39:10;12.90;;;6.78;;
14799;SDS011;7491;57.750;11.970;2023-04-06T06:41:37;11.80;;;6.20;;
14799;SDS011;7491;57.750;11.970;2023-04-06T06:44:03;22.75;;;9.70;;
14799;SDS011;7491;57.750;11.970;2023-04-06T06:46:30;14.10;;;7.95;;
14799;SDS011;7491;57.750;11.970;2023-04-06T06:48:58;49.65;;;21.83;;
14799;SDS011;7491;57.750;11.970;2023-04-06T06:51:25;15.40;;;8.65;;
14799;SDS011;7491;57.750;11.970;2023-04-06T06:53:51;16.02;;;9.00;;
14799;SDS011;7491;57.750;11.970;2023-04-06T06:56:18;6.88;;;3.55;;
14799;SDS011;7491;57.750;11.970;2023-04-06T06:58:45;5.38;;;2.50;;
14799;SDS011;7491;57.750;11.970;2023-04-06T07:01:11;2.72;;;2.00;;
14799;SDS011;7491;57.750;11.970;2023-04-06T07:03:38;5.10;;;2.80;;
14799;SDS011;7491;57.750;11.970;2023-04-06T07:06:06;9.77;;;5.30;;
14799;SDS011;7491;57.750;11.970;2023-04-06T07:08:32;9.48;;;4.68;;
14799;SDS011;7491;57.750;11.970;2023-04-06T07:10:59;19.45;;;9.30;;
14799;SDS011;7491;57.750;11.970;2023-04-06T07:13:26;33.22;;;14.68;;
14799;SDS011;7491;57.750;11.970;2023-04-06T07:15:52;48.72;;;18.67;;
14799;SDS011;7491;57.750;11.970;2023-04-06T07:18:19;8.50;;;3.70;;
14799;SDS011;7491;57.750;11.970;2023-04-06T07:20:46;3.30;;;1.90;;
14799;SDS011;7491;57.750;11.970;2023-04-06T07:23:14;7.72;;;4.53;;
14799;SDS011;7491;57.750;11.970;2023-04-06T07:25:41;10.75;;;6.70;;
14799;SDS011;7491;57.750;11.970;2023-04-06T07:28:07;6.90;;;3.80;;
14799;SDS011;7491;57.750;11.970;2023-04-06T07:30:34;2.58;;;2.38;;
14799;SDS011;7491;57.750;11.970;2023-04-06T07:33:00;3.92;;;2.08;;
14799;SDS011;7491;57.750;11.970;2023-04-06T07:35:27;3.40;;;2.75;;
14799;SDS011;7491;57.750;11.970;2023-04-06T07:37:55;2.92;;;2.63;;
14799;SDS011;7491;57.750;11.970;2023-04-06T07:40:23;1.55;;;1.45;;
14799;SDS011;7491;57.750;11.970;2023-04-06T07:42:51;5.80;;;2.65;;
14799;SDS011;7491;57.750;11.970;2023-04-06T07:45:17;3.00;;;2.47;;
14799;SDS011;7491;57.750;11.970;2023-04-06T07:47:44;2.53;;;1.70;;
14799;SDS011;7491;57.750;11.970;2023-04-06T07:50:11;5.85;;;2.28;;
14799;SDS011;7491;57.750;11.970;2023-04-06T07:52:38;2.28;;;1.60;;
14799;SDS011;7491;57.750;11.970;2023-04-06T07:55:04;3.38;;;2.53;;
14799;SDS011;7491;57.750;11.970;2023-04-06T07:57:33;3.05;;;2.20;;
14799;SDS011;7491;57.750;11.970;2023-04-06T08:00:00;4.28;;;2.90;;
14799;SDS011;7491;57.750;11.970;2023-04-06T08:02:28;2.60;;;1.90;;
14799;SDS011;7491;57.750;11.970;2023-04-06T08:04:55;2.30;;;1.70;;
14799;SDS011;7491;57.750;11.970;2023-04-06T08:07:22;2.53;;;2.20;;
14799;SDS011;7491;57.750;11.970;2023-04-06T08:09:48;2.88;;;1.70;;
14799;SDS011;7491;57.750;11.970;2023-04-06T08:12:15;2.83;;;1.73;;
14799;SDS011;7491;57.750;11.970;2023-04-06T08:14:43;5.95;;;3.05;;
14799;SDS011;7491;57.750;11.970;2023-04-06T08:17:09;73.53;;;23.95;;
14799;SDS011;7491;57.750;11.970;2023-04-06T08:19:36;56.22;;;19.58;;
14799;SDS011;7491;57.750;11.970;2023-04-06T08:22:03;99.72;;;28.45;;
14799;SDS011;7491;57.750;11.970;2023-04-06T08:24:30;145.63;;;46.53;;
14799;SDS011;7491;57.750;11.970;2023-04-06T08:26:57;85.18;;;30.55;;
14799;SDS011;7491;57.750;11.970;2023-04-06T08:29:24;153.68;;;47.00;;
14799;SDS011;7491;57.750;11.970;2023-04-06T08:31:52;50.40;;;19.10;;
14799;SDS011;7491;57.750;11.970;2023-04-06T08:34:18;6.68;;;3.40;;
14799;SDS011;7491;57.750;11.970;2023-04-06T08:36:45;32.47;;;14.32;;
14799;SDS011;7491;57.750;11.970;2023-04-06T08:39:12;3.78;;;2.13;;
14799;SDS011;7491;57.750;11.970;2023-04-06T08:41:41;41.53;;;18.30;;
14799;SDS011;7491;57.750;11.970;2023-04-06T08:44:07;4.20;;;2.65;;
14799;SDS011;7491;57.750;11.970;2023-04-06T08:46:34;12.07;;;7.43;;
14799;SDS011;7491;57.750;11.970;2023-04-06T08:49:02;17.48;;;11.20;;
14799;SDS011;7491;57.750;11.970;2023-04-06T08:51:31;6.38;;;3.67;;
14799;SDS011;7491;57.750;11.970;2023-04-06T08:53:58;5.22;;;4.35;;
14799;SDS011;7491;57.750;11.970;2023-04-06T08:56:26;5.38;;;3.85;;
14799;SDS011;7491;57.750;11.970;2023-04-06T08:58:54;6.13;;;4.68;;
14799;SDS011;7491;57.750;11.970;2023-04-06T09:01:23;3.30;;;3.00;;
14799;SDS011;7491;57.750;11.970;2023-04-06T09:03:53;4.38;;;3.97;;
14799;SDS011;7491;57.750;11.970;2023-04-06T09:06:24;3.85;;;2.55;;
14799;SDS011;7491;57.750;11.970;2023-04-06T09:08:51;3.45;;;3.15;;
14799;SDS011;7491;57.750;11.970;2023-04-06T09:11:18;2.92;;;2.38;;
14799;SDS011;7491;57.750;11.970;2023-04-06T09:13:46;4.05;;;2.60;;
14799;SDS011;7491;57.750;11.970;2023-04-06T09:16:13;4.13;;;2.60;;
14799;SDS011;7491;57.750;11.970;2023-04-06T09:18:41;4.43;;;3.17;;
14799;SDS011;7491;57.750;11.970;2023-04-06T09:21:08;6.35;;;2.88;;
14799;SDS011;7491;57.750;11.970;2023-04-06T09:23:37;6.63;;;3.75;;
14799;SDS011;7491;57.750;11.970;2023-04-06T09:26:04;4.55;;;2.40;;
14799;SDS011;7491;57.750;11.970;2023-04-06T09:28:42;4.50;;;2.53;;
14799;SDS011;7491;57.750;11.970;2023-04-06T09:31:10;3.40;;;3.10;;
14799;SDS011;7491;57.750;11.970;2023-04-06T09:33:37;3.83;;;3.25;;
14799;SDS011;7491;57.750;11.970;2023-04-06T09:36:05;4.90;;;3.63;;
14799;SDS011;7491;57.750;11.970;2023-04-06T09:38:34;5.65;;;2.60;;
14799;SDS011;7491;57.750;11.970;2023-04-06T09:41:04;6.38;;;2.47;;
14799;SDS011;7491;57.750;11.970;2023-04-06T09:43:31;5.53;;;3.30;;
14799;SDS011;7491;57.750;11.970;2023-04-06T09:45:57;3.03;;;2.78;;
14799;SDS011;7491;57.750;11.970;2023-04-06T09:48:27;4.25;;;3.38;;
14799;SDS011;7491;57.750;11.970;2023-04-06T09:50:59;5.68;;;2.30;;
14799;SDS011;7491;57.750;11.970;2023-04-06T09:53:30;5.00;;;4.07;;
14799;SDS011;7491;57.750;11.970;2023-04-06T09:56:01;5.30;;;3.95;;
14799;SDS011;7491;57.750;11.970;2023-04-06T09:58:30;7.45;;;4.38;;
14799;SDS011;7491;57.750;11.970;2023-04-06T10:01:01;6.13;;;4.10;;
14799;SDS011;7491;57.750;11.970;2023-04-06T10:03:32;9.18;;;5.78;;
14799;SDS011;7491;57.750;11.970;2023-04-06T10:06:10;5.60;;;3.70;;
14799;SDS011;7491;57.750;11.970;2023-04-06T10:08:39;6.03;;;3.33;;
14799;SDS011;7491;57.750;11.970;2023-04-06T10:11:09;4.20;;;3.13;;
14799;SDS011;7491;57.750;11.970;2023-04-06T10:13:36;4.88;;;3.17;;
14799;SDS011;7491;57.750;11.970;2023-04-06T10:16:03;5.03;;;3.63;;
14799;SDS011;7491;57.750;11.970;2023-04-06T10:18:30;5.03;;;3.70;;
14799;SDS011;7491;57.750;11.970;2023-04-06T10:21:00;5.88;;;3.08;;
14799;SDS011;7491;57.750;11.970;2023-04-06T10:23:31;4.47;;;3.60;;
14799;SDS011;7491;57.750;11.970;2023-04-06T10:26:00;6.25;;;3.38;;
14799;SDS011;7491;57.750;11.970;2023-04-06T10:28:31;5.30;;;3.70;;
14799;SDS011;7491;57.750;11.970;2023-04-06T10:31:01;5.72;;;4.45;;
14799;SDS011;7491;57.750;11.970;2023-04-06T10:33:30;6.18;;;4.63;;
14799;SDS011;7491;57.750;11.970;2023-04-06T10:35:58;3.88;;;3.13;;
14799;SDS011;7491;57.750;11.970;2023-04-06T10:38:36;6.07;;;4.75;;
14799;SDS011;7491;57.750;11.970;2023-04-06T10:41:04;5.80;;;4.80;;
14799;SDS011;7491;57.750;11.970;2023-04-06T10:43:34;11.45;;;7.47;;
14799;SDS011;7491;57.750;11.970;2023-04-06T10:46:02;13.20;;;8.55;;
14799;SDS011;7491;57.750;11.970;2023-04-06T10:48:36;11.68;;;7.22;;
14799;SDS011;7491;57.750;11.970;2023-04-06T10:51:06;11.32;;;7.68;;
14799;SDS011;7491;57.750;11.970;2023-04-06T10:53:34;12.55;;;9.23;;
14799;SDS011;7491;57.750;11.970;2023-04-06T10:56:01;10.80;;;7.07;;
14799;SDS011;7491;57.750;11.970;2023-04-06T10:58:29;11.70;;;7.95;;
14799;SDS011;7491;57.750;11.970;2023-04-06T11:00:57;10.88;;;7.38;;
14799;SDS011;7491;57.750;11.970;2023-04-06T11:03:24;19.27;;;10.50;;
14799;SDS011;7491;57.750;11.970;2023-04-06T11:05:52;13.48;;;9.27;;
14799;SDS011;7491;57.750;11.970;2023-04-06T11:08:22;14.70;;;13.13;;
14799;SDS011;7491;57.750;11.970;2023-04-06T11:10:49;12.43;;;10.07;;
14799;SDS011;7491;57.750;11.970;2023-04-06T11:13:16;11.98;;;7.82;;
14799;SDS011;7491;57.750;11.970;2023-04-06T11:15:43;10.18;;;7.82;;
14799;SDS011;7491;57.750;11.970;2023-04-06T11:18:12;13.15;;;7.88;;
14799;SDS011;7491;57.750;11.970;2023-04-06T11:20:38;13.68;;;8.75;;
14799;SDS011;7491;57.750;11.970;2023-04-06T11:23:06;11.27;;;8.13;;
14799;SDS011;7491;57.750;11.970;2023-04-06T11:25:33;15.05;;;7.78;;
14799;SDS011;7491;57.750;11.970;2023-04-06T11:27:59;8.45;;;6.57;;
14799;SDS011;7491;57.750;11.970;2023-04-06T11:30:26;12.88;;;6.35;;
14799;SDS011;7491;57.750;11.970;2023-04-06T11:33:00;8.55;;;6.25;;
14799;SDS011;7491;57.750;11.970;2023-04-06T11:35:28;7.60;;;5.95;;
14799;SDS011;7491;57.750;11.970;2023-04-06T11:37:57;14.23;;;8.57;;
14799;SDS011;7491;57.750;11.970;2023-04-06T11:40:24;5.85;;;4.75;;
14799;SDS011;7491;57.750;11.970;2023-04-06T11:42:53;6.82;;;3.90;;
14799;SDS011;7491;57.750;11.970;2023-04-06T11:45:20;6.43;;;3.70;;
14799;SDS011;7491;57.750;11.970;2023-04-06T11:47:54;8.38;;;4.70;;
14799;SDS011;7491;57.750;11.970;2023-04-06T11:50:22;6.95;;;4.80;;
14799;SDS011;7491;57.750;11.970;2023-04-06T11:52:59;6.78;;;4.05;;
14799;SDS011;7491;57.750;11.970;2023-04-06T11:55:26;8.15;;;4.15;;
14799;SDS011;7491;57.750;11.970;2023-04-06T11:58:02;7.15;;;3.78;;
14799;SDS011;7491;57.750;11.970;2023-04-06T12:00:33;4.63;;;2.90;;
14799;SDS011;7491;57.750;11.970;2023-04-06T12:03:02;5.20;;;3.35;;
14799;SDS011;7491;57.750;11.970;2023-04-06T12:05:28;8.45;;;4.10;;
14799;SDS011;7491;57.750;11.970;2023-04-06T12:10:53;5.13;;;3.15;;
14799;SDS011;7491;57.750;11.970;2023-04-06T12:13:19;7.25;;;4.00;;
14799;SDS011;7491;57.750;11.970;2023-04-06T12:16:01;6.07;;;3.25;;
14799;SDS011;7491;57.750;11.970;2023-04-06T12:18:30;8.77;;;3.33;;
14799;SDS011;7491;57.750;11.970;2023-04-06T12:20:57;7.40;;;3.25;;
14799;SDS011;7491;57.750;11.970;2023-04-06T12:23:26;4.70;;;3.13;;
14799;SDS011;7491;57.750;11.970;2023-04-06T12:25:52;4.82;;;3.15;;
14799;SDS011;7491;57.750;11.970;2023-04-06T12:28:19;4.18;;;3.10;;
14799;SDS011;7491;57.750;11.970;2023-04-06T12:30:48;4.90;;;3.00;;
14799;SDS011;7491;57.750;11.970;2023-04-06T12:33:15;4.40;;;2.67;;
14799;SDS011;7491;57.750;11.970;2023-04-06T12:35:42;4.88;;;2.80;;
14799;SDS011;7491;57.750;11.970;2023-04-06T12:38:09;2.78;;;1.85;;
14799;SDS011;7491;57.750;11.970;2023-04-06T12:40:38;2.13;;;1.80;;
14799;SDS011;7491;57.750;11.970;2023-04-06T12:43:04;2.15;;;1.90;;
14799;SDS011;7491;57.750;11.970;2023-04-06T12:45:31;5.43;;;2.22;;
14799;SDS011;7491;57.750;11.970;2023-04-06T12:47:58;4.13;;;2.28;;
14799;SDS011;7491;57.750;11.970;2023-04-06T12:50:28;3.13;;;2.58;;
14799;SDS011;7491;57.750;11.970;2023-04-06T12:55:58;4.82;;;2.78;;
14799;SDS011;7491;57.750;11.970;2023-04-06T12:58:26;7.38;;;2.70;;
14799;SDS011;7491;57.750;11.970;2023-04-06T13:01:06;4.15;;;2.25;;
14799;SDS011;7491;57.750;11.970;2023-04-06T13:03:55;3.65;;;2.42;;
14799;SDS011;7491;57.750;11.970;2023-04-06T13:09:55;5.10;;;2.13;;
14799;SDS011;7491;57.750;11.970;2023-04-06T13:13:10;3.47;;;1.85;;
14799;SDS011;7491;57.750;11.970;2023-04-06T13:15:43;2.20;;;1.80;;
14799;SDS011;7491;57.750;11.970;2023-04-06T13:18:52;4.38;;;1.70;;
14799;SDS011;7491;57.750;11.970;2023-04-06T13:21:27;4.32;;;2.10;;
14799;SDS011;7491;57.750;11.970;2023-04-06T13:23:58;4.15;;;2.30;;
14799;SDS011;7491;57.750;11.970;2023-04-06T13:26:55;13.10;;;6.07;;
14799;SDS011;7491;57.750;11.970;2023-04-06T13:30:03;2.72;;;2.00;;
14799;SDS011;7491;57.750;11.970;2023-04-06T13:33:04;3.33;;;1.92;;
14799;SDS011;7491;57.750;11.970;2023-04-06T13:36:06;2.97;;;1.77;;
14799;SDS011;7491;57.750;11.970;2023-04-06T13:38:33;4.35;;;1.70;;
14799;SDS011;7491;57.750;11.970;2023-04-06T13:41:00;2.92;;;2.20;;
14799;SDS011;7491;57.750;11.970;2023-04-06T13:43:47;8.35;;;3.88;;
14799;SDS011;7491;57.750;11.970;2023-04-06T13:46:27;7.32;;;3.70;;
14799;SDS011;7491;57.750;11.970;2023-04-06T13:49:13;2.60;;;1.77;;
14799;SDS011;7491;57.750;11.970;2023-04-06T13:52:16;6.55;;;3.15;;
14799;SDS011;7491;57.750;11.970;2023-04-06T13:54:57;3.65;;;2.55;;
14799;SDS011;7491;57.750;11.970;2023-04-06T13:57:41;2.42;;;2.03;;
14799;SDS011;7491;57.750;11.970;2023-04-06T14:03:03;15.23;;;1.90;;
14799;SDS011;7491;57.750;11.970;2023-04-06T14:06:00;5.80;;;1.75;;
14799;SDS011;7491;57.750;11.970;2023-04-06T14:08:36;2.72;;;1.73;;
14799;SDS011;7491;57.750;11.970;2023-04-06T14:11:33;2.30;;;1.70;;
14799;SDS011;7491;57.750;11.970;2023-04-06T14:14:02;2.70;;;1.63;;
14799;SDS011;7491;57.750;11.970;2023-04-06T14:16:29;2.75;;;1.80;;
14799;SDS011;7491;57.750;11.970;2023-04-06T14:19:02;3.63;;;1.50;;
14799;SDS011;7491;57.750;11.970;2023-04-06T14:21:32;2.38;;;1.30;;
14799;SDS011;7491;57.750;11.970;2023-04-06T14:27:28;2.38;;;1.70;;
14799;SDS011;7491;57.750;11.970;2023-04-06T14:29:58;4.00;;;2.10;;
14799;SDS011;7491;57.750;11.970;2023-04-06T14:32:31;2.08;;;1.75;;
14799;SDS011;7491;57.750;11.970;2023-04-06T14:38:37;7.45;;;2.00;;
14799;SDS011;7491;57.750;11.970;2023-04-06T14:41:14;2.05;;;1.85;;
14799;SDS011;7491;57.750;11.970;2023-04-06T14:43:52;1.60;;;1.38;;
14799;SDS011;7491;57.750;11.970;2023-04-06T14:46:20;4.55;;;1.52;;
14799;SDS011;7491;57.750;11.970;2023-04-06T14:48:54;4.50;;;2.40;;
14799;SDS011;7491;57.750;11.970;2023-04-06T14:51:23;5.15;;;1.98;;
14799;SDS011;7491;57.750;11.970;2023-04-06T14:53:50;5.63;;;2.10;;
14799;SDS011;7491;57.750;11.970;2023-04-06T14:56:20;3.75;;;2.25;;
14799;SDS011;7491;57.750;11.970;2023-04-06T14:58:47;13.52;;;2.60;;
14799;SDS011;7491;57.750;11.970;2023-04-06T15:01:24;3.35;;;2.05;;
14799;SDS011;7491;57.750;11.970;2023-04-06T15:03:54;3.78;;;2.00;;
14799;SDS011;7491;57.750;11.970;2023-04-06T15:06:20;2.78;;;2.05;;
14799;SDS011;7491;57.750;11.970;2023-04-06T15:08:48;2.72;;;2.28;;
14799;SDS011;7491;57.750;11.970;2023-04-06T15:14:49;5.13;;;2.28;;
14799;SDS011;7491;57.750;11.970;2023-04-06T15:17:16;2.42;;;2.17;;
14799;SDS011;7491;57.750;11.970;2023-04-06T15:19:43;4.38;;;2.42;;